sensor_id;sensor_type;location;lat;lon;timestamp;pressure;altitude;pressure_sealevel;temperature;humidity
79791;BME280;69278;52.220;5.172;2024-02-21T00:00:32;102175.28;;;10.11;88.18
79791;BME280;69278;52.220;5.172;2024-02-21T00:02:58;102187.88;;;10.20;88.20
79791;BME280;69278;52.220;5.172;2024-02-21T00:05:28;102171.81;;;10.11;88.36
79791;BME280;69278;52.220;5.172;2024-02-21T00:07:55;102193.59;;;10.27;88.34
79791;BME280;69278;52.220;5.172;2024-02-21T00:10:21;102160.66;;;10.07;88.19
79791;BME280;69278;52.220;5.172;2024-02-21T00:12:48;102146.09;;;10.01;88.11
79791;BME280;69278;52.220;5.172;2024-02-21T00:15:14;102169.28;;;10.09;88.15
79791;BME280;69278;52.220;5.172;2024-02-21T00:17:41;102161.59;;;10.06;88.18
79791;BME280;69278;52.220;5.172;2024-02-21T00:20:08;102180.44;;;10.27;88.03
79791;BME280;69278;52.220;5.172;2024-02-21T00:22:35;102148.31;;;10.08;88.30
79791;BME280;69278;52.220;5.172;2024-02-21T00:25:01;102190.84;;;10.28;88.18
79791;BME280;69278;52.220;5.172;2024-02-21T00:27:28;102188.97;;;10.30;88.25
79791;BME280;69278;52.220;5.172;2024-02-21T00:29:54;102168.31;;;10.24;88.40
79791;BME280;69278;52.220;5.172;2024-02-21T00:32:21;102188.97;;;10.30;88.32
79791;BME280;69278;52.220;5.172;2024-02-21T00:34:47;102173.13;;;10.18;88.21
79791;BME280;69278;52.220;5.172;2024-02-21T00:37:14;102168.91;;;10.15;88.27
79791;BME280;69278;52.220;5.172;2024-02-21T00:39:40;102208.03;;;10.34;88.34
79791;BME280;69278;52.220;5.172;2024-02-21T00:42:10;102190.66;;;10.31;88.36
79791;BME280;69278;52.220;5.172;2024-02-21T00:44:36;102188.75;;;10.33;88.46
79791;BME280;69278;52.220;5.172;2024-02-21T00:47:03;102188.66;;;10.35;88.69
79791;BME280;69278;52.220;5.172;2024-02-21T00:49:29;102174.94;;;10.30;88.59
79791;BME280;69278;52.220;5.172;2024-02-21T00:51:56;102166.31;;;10.28;88.60
79791;BME280;69278;52.220;5.172;2024-02-21T00:54:23;102162.75;;;10.29;88.67
79791;BME280;69278;52.220;5.172;2024-02-21T00:56:49;102175.47;;;10.35;88.51
79791;BME280;69278;52.220;5.172;2024-02-21T00:59:16;102157.25;;;10.19;88.67
79791;BME280;69278;52.220;5.172;2024-02-21T01:01:43;102182.84;;;10.30;88.61
79791;BME280;69278;52.220;5.172;2024-02-21T01:04:10;102158.59;;;10.25;88.77
79791;BME280;69278;52.220;5.172;2024-02-21T01:06:36;102174.00;;;10.31;88.95
79791;BME280;69278;52.220;5.172;2024-02-21T01:09:03;102168.00;;;10.29;88.84
79791;BME280;69278;52.220;5.172;2024-02-21T01:11:30;102132.75;;;10.05;88.98
79791;BME280;69278;52.220;5.172;2024-02-21T01:13:56;102110.41;;;9.97;88.81
79791;BME280;69278;52.220;5.172;2024-02-21T01:16:24;102167.28;;;10.27;88.97
79791;BME280;69278;52.220;5.172;2024-02-21T01:18:50;102162.75;;;10.29;89.02
79791;BME280;69278;52.220;5.172;2024-02-21T01:21:17;102111.88;;;10.01;88.77
79791;BME280;69278;52.220;5.172;2024-02-21T01:23:44;102156.63;;;10.28;88.94
79791;BME280;69278;52.220;5.172;2024-02-21T01:26:10;102090.72;;;9.90;89.06
79791;BME280;69278;52.220;5.172;2024-02-21T01:28:40;102127.56;;;10.17;88.97
79791;BME280;69278;52.220;5.172;2024-02-21T01:31:07;102110.84;;;10.04;89.18
79791;BME280;69278;52.220;5.172;2024-02-21T01:33:33;102132.91;;;10.16;88.83
79791;BME280;69278;52.220;5.172;2024-02-21T01:36:05;102111.75;;;10.17;89.08
79791;BME280;69278;52.220;5.172;2024-02-21T01:38:34;102126.06;;;10.26;88.99
79791;BME280;69278;52.220;5.172;2024-02-21T01:41:01;102117.44;;;10.24;89.04
79791;BME280;69278;52.220;5.172;2024-02-21T01:43:28;102115.53;;;10.26;89.36
79791;BME280;69278;52.220;5.172;2024-02-21T01:45:55;102066.63;;;9.96;89.02
79791;BME280;69278;52.220;5.172;2024-02-21T01:48:23;102115.34;;;10.29;89.16
79791;BME280;69278;52.220;5.172;2024-02-21T01:50:51;102106.59;;;10.28;89.06
79791;BME280;69278;52.220;5.172;2024-02-21T01:53:23;102091.75;;;10.15;89.01
79791;BME280;69278;52.220;5.172;2024-02-21T01:55:52;102106.47;;;10.30;89.41
79791;BME280;69278;52.220;5.172;2024-02-21T01:58:19;102077.81;;;10.13;89.10
79791;BME280;69278;52.220;5.172;2024-02-21T02:00:46;102111.66;;;10.31;89.12
79791;BME280;69278;52.220;5.172;2024-02-21T02:03:14;102062.31;;;10.08;89.27
79791;BME280;69278;52.220;5.172;2024-02-21T02:05:47;102083.31;;;10.22;89.20
79791;BME280;69278;52.220;5.172;2024-02-21T02:08:18;102097.44;;;10.34;89.33
79791;BME280;69278;52.220;5.172;2024-02-21T02:10:46;102039.25;;;9.99;89.32
79791;BME280;69278;52.220;5.172;2024-02-21T02:13:12;102074.28;;;10.26;89.27
79791;BME280;69278;52.220;5.172;2024-02-21T02:15:44;102068.56;;;10.20;89.23
79791;BME280;69278;52.220;5.172;2024-02-21T02:18:12;102087.97;;;10.31;89.23
79791;BME280;69278;52.220;5.172;2024-02-21T02:20:39;102078.50;;;10.29;89.27
79791;BME280;69278;52.220;5.172;2024-02-21T02:25:50;102085.53;;;10.28;89.25
79791;BME280;69278;52.220;5.172;2024-02-21T02:28:20;102077.53;;;10.30;89.37
79791;BME280;69278;52.220;5.172;2024-02-21T02:30:47;102084.69;;;10.28;89.44
79791;BME280;69278;52.220;5.172;2024-02-21T02:33:14;102073.22;;;10.29;89.44
79791;BME280;69278;52.220;5.172;2024-02-21T02:35:41;102081.84;;;10.31;89.55
79791;BME280;69278;52.220;5.172;2024-02-21T02:38:07;102034.63;;;10.02;89.42
79791;BME280;69278;52.220;5.172;2024-02-21T02:40:34;102041.63;;;10.16;89.63
79791;BME280;69278;52.220;5.172;2024-02-21T02:43:01;102071.31;;;10.31;89.59
79791;BME280;69278;52.220;5.172;2024-02-21T02:45:28;102049.00;;;10.24;89.58
79791;BME280;69278;52.220;5.172;2024-02-21T02:47:55;102058.69;;;10.23;89.48
79791;BME280;69278;52.220;5.172;2024-02-21T02:50:24;102024.72;;;10.06;89.46
79791;BME280;69278;52.220;5.172;2024-02-21T02:52:52;102058.91;;;10.33;89.72
79791;BME280;69278;52.220;5.172;2024-02-21T02:55:18;102050.47;;;10.28;89.62
79791;BME280;69278;52.220;5.172;2024-02-21T02:57:45;102047.44;;;10.34;89.64
79791;BME280;69278;52.220;5.172;2024-02-21T03:00:12;102045.53;;;10.36;89.65
79791;BME280;69278;52.220;5.172;2024-02-21T03:02:41;102043.09;;;10.33;89.55
79791;BME280;69278;52.220;5.172;2024-02-21T03:05:17;102047.19;;;10.37;89.67
79791;BME280;69278;52.220;5.172;2024-02-21T03:07:45;102028.47;;;10.29;89.56
79791;BME280;69278;52.220;5.172;2024-02-21T03:10:13;102009.72;;;10.21;89.49
79791;BME280;69278;52.220;5.172;2024-02-21T03:12:40;101950.50;;;9.88;89.37
79791;BME280;69278;52.220;5.172;2024-02-21T03:15:07;102004.56;;;10.19;89.14
79791;BME280;69278;52.220;5.172;2024-02-21T03:17:33;102029.00;;;10.34;89.41
79791;BME280;69278;52.220;5.172;2024-02-21T03:20:03;102006.88;;;10.24;89.35
79791;BME280;69278;52.220;5.172;2024-02-21T03:22:38;102001.16;;;10.30;89.29
79791;BME280;69278;52.220;5.172;2024-02-21T03:25:06;101980.56;;;10.24;89.46
79791;BME280;69278;52.220;5.172;2024-02-21T03:27:33;101995.69;;;10.33;89.34
79791;BME280;69278;52.220;5.172;2024-02-21T03:30:00;101904.94;;;9.75;89.27
79791;BME280;69278;52.220;5.172;2024-02-21T03:32:26;101995.69;;;10.33;89.20
79791;BME280;69278;52.220;5.172;2024-02-21T03:34:55;101996.56;;;10.33;89.39
79791;BME280;69278;52.220;5.172;2024-02-21T03:37:21;101984.22;;;10.34;89.50
79791;BME280;69278;52.220;5.172;2024-02-21T03:39:48;101972.66;;;10.36;89.52
79791;BME280;69278;52.220;5.172;2024-02-21T03:42:14;101969.91;;;10.38;89.46
79791;BME280;69278;52.220;5.172;2024-02-21T03:44:41;101975.16;;;10.38;89.33
79791;BME280;69278;52.220;5.172;2024-02-21T03:47:07;101986.63;;;10.37;89.06
79791;BME280;69278;52.220;5.172;2024-02-21T03:49:37;101984.97;;;10.36;89.00
79791;BME280;69278;52.220;5.172;2024-02-21T03:52:04;101953.38;;;10.23;89.03
79791;BME280;69278;52.220;5.172;2024-02-21T03:54:30;101980.75;;;10.33;88.69
79791;BME280;69278;52.220;5.172;2024-02-21T03:56:57;101975.38;;;10.35;89.16
79791;BME280;69278;52.220;5.172;2024-02-21T03:59:23;101966.63;;;10.34;89.25
79791;BME280;69278;52.220;5.172;2024-02-21T04:01:53;101977.16;;;10.34;88.97
79791;BME280;69278;52.220;5.172;2024-02-21T04:04:20;101953.25;;;10.25;88.97
79791;BME280;69278;52.220;5.172;2024-02-21T04:06:48;101969.91;;;10.25;88.95
79791;BME280;69278;52.220;5.172;2024-02-21T04:09:15;101978.00;;;10.35;89.13
79791;BME280;69278;52.220;5.172;2024-02-21T04:11:42;101901.78;;;9.95;88.89
79791;BME280;69278;52.220;5.172;2024-02-21T04:14:08;101949.47;;;10.29;88.98
79791;BME280;69278;52.220;5.172;2024-02-21T04:16:35;101938.44;;;10.24;89.11
79791;BME280;69278;52.220;5.172;2024-02-21T04:19:02;101960.09;;;10.40;89.22
79791;BME280;69278;52.220;5.172;2024-02-21T04:21:28;101917.19;;;10.14;89.11
79791;BME280;69278;52.220;5.172;2024-02-21T04:23:55;101963.69;;;10.39;89.25
79791;BME280;69278;52.220;5.172;2024-02-21T04:26:22;101951.47;;;10.38;88.97
79791;BME280;69278;52.220;5.172;2024-02-21T04:28:48;101905.13;;;10.10;89.09
79791;BME280;69278;52.220;5.172;2024-02-21T04:31:15;101961.06;;;10.39;89.00
79791;BME280;69278;52.220;5.172;2024-02-21T04:33:41;101959.56;;;10.35;88.90
79791;BME280;69278;52.220;5.172;2024-02-21T04:36:08;101955.16;;;10.35;88.75
79791;BME280;69278;52.220;5.172;2024-02-21T04:38:35;101930.84;;;10.19;88.82
79791;BME280;69278;52.220;5.172;2024-02-21T04:41:02;101955.28;;;10.34;88.83
79791;BME280;69278;52.220;5.172;2024-02-21T04:43:28;101939.47;;;10.34;88.74
79791;BME280;69278;52.220;5.172;2024-02-21T04:45:55;101911.19;;;10.12;88.53
79791;BME280;69278;52.220;5.172;2024-02-21T04:48:22;101903.28;;;10.12;88.66
79791;BME280;69278;52.220;5.172;2024-02-21T04:50:48;101919.28;;;10.22;88.73
79791;BME280;69278;52.220;5.172;2024-02-21T04:53:15;101905.13;;;10.10;88.59
79791;BME280;69278;52.220;5.172;2024-02-21T04:55:42;101931.16;;;10.27;88.75
79791;BME280;69278;52.220;5.172;2024-02-21T04:58:09;101936.53;;;10.26;88.47
79791;BME280;69278;52.220;5.172;2024-02-21T05:00:35;101906.19;;;10.08;88.58
79791;BME280;69278;52.220;5.172;2024-02-21T05:03:02;101938.44;;;10.24;88.62
79791;BME280;69278;52.220;5.172;2024-02-21T05:05:29;101891.75;;;10.00;88.56
79791;BME280;69278;52.220;5.172;2024-02-21T05:07:55;101931.59;;;10.21;88.17
79791;BME280;69278;52.220;5.172;2024-02-21T05:10:22;101922.84;;;10.21;88.56
79791;BME280;69278;52.220;5.172;2024-02-21T05:12:49;101920.34;;;10.19;88.39
79791;BME280;69278;52.220;5.172;2024-02-21T05:15:16;101917.56;;;10.21;88.57
79791;BME280;69278;52.220;5.172;2024-02-21T05:17:42;101917.78;;;10.18;88.55
79791;BME280;69278;52.220;5.172;2024-02-21T05:20:10;101878.72;;;9.99;88.55
79791;BME280;69278;52.220;5.172;2024-02-21T05:22:37;101873.91;;;9.93;88.57
79791;BME280;69278;52.220;5.172;2024-02-21T05:25:04;101903.91;;;10.16;88.23
79791;BME280;69278;52.220;5.172;2024-02-21T05:27:30;101869.06;;;9.99;88.62
79791;BME280;69278;52.220;5.172;2024-02-21T05:30:14;101887.25;;;10.15;88.51
79791;BME280;69278;52.220;5.172;2024-02-21T05:32:41;101860.94;;;10.02;88.47
79791;BME280;69278;52.220;5.172;2024-02-21T05:35:08;101809.22;;;9.78;88.25
79791;BME280;69278;52.220;5.172;2024-02-21T05:37:34;101862.19;;;10.10;88.60
79791;BME280;69278;52.220;5.172;2024-02-21T05:40:01;101869.59;;;10.17;88.50
79791;BME280;69278;52.220;5.172;2024-02-21T05:42:27;101845.78;;;10.06;88.53
79791;BME280;69278;52.220;5.172;2024-02-21T05:44:54;101857.47;;;10.15;88.48
79791;BME280;69278;52.220;5.172;2024-02-21T05:47:20;101854.84;;;10.15;88.40
79791;BME280;69278;52.220;5.172;2024-02-21T05:49:47;101805.19;;;9.85;88.50
79791;BME280;69278;52.220;5.172;2024-02-21T05:52:14;101844.41;;;10.13;88.57
79791;BME280;69278;52.220;5.172;2024-02-21T05:54:41;101826.75;;;10.02;88.72
79791;BME280;69278;52.220;5.172;2024-02-21T05:57:08;101838.31;;;10.13;88.78
79791;BME280;69278;52.220;5.172;2024-02-21T05:59:35;101829.97;;;10.06;88.75
79791;BME280;69278;52.220;5.172;2024-02-21T06:02:03;101827.69;;;10.01;88.77
79791;BME280;69278;52.220;5.172;2024-02-21T06:04:30;101847.91;;;10.14;88.68
79791;BME280;69278;52.220;5.172;2024-02-21T06:06:57;101840.28;;;10.09;88.85
79791;BME280;69278;52.220;5.172;2024-02-21T06:09:24;101812.94;;;9.99;88.72
79791;BME280;69278;52.220;5.172;2024-02-21T06:11:50;101796.53;;;9.95;88.74
79791;BME280;69278;52.220;5.172;2024-02-21T06:14:17;101804.94;;;10.00;88.92
79791;BME280;69278;52.220;5.172;2024-02-21T06:16:44;101819.31;;;10.08;88.81
79791;BME280;69278;52.220;5.172;2024-02-21T06:19:10;101835.66;;;10.13;88.77
79791;BME280;69278;52.220;5.172;2024-02-21T06:21:37;101805.50;;;9.93;88.74
79791;BME280;69278;52.220;5.172;2024-02-21T06:24:04;101825.22;;;10.11;88.83
79791;BME280;69278;52.220;5.172;2024-02-21T06:26:30;101765.03;;;9.70;88.83
79791;BME280;69278;52.220;5.172;2024-02-21T06:28:57;101826.81;;;10.01;88.56
79791;BME280;69278;52.220;5.172;2024-02-21T06:31:27;101842.81;;;10.11;88.73
79791;BME280;69278;52.220;5.172;2024-02-21T06:33:54;101834.63;;;10.02;88.73
79791;BME280;69278;52.220;5.172;2024-02-21T06:36:21;101855.13;;;10.10;88.74
79791;BME280;69278;52.220;5.172;2024-02-21T06:38:48;101840.38;;;10.08;88.93
79791;BME280;69278;52.220;5.172;2024-02-21T06:41:18;101843.66;;;10.11;88.71
79791;BME280;69278;52.220;5.172;2024-02-21T06:43:46;101839.44;;;10.09;88.69
79791;BME280;69278;52.220;5.172;2024-02-21T06:46:31;101841.56;;;10.03;88.50
79791;BME280;69278;52.220;5.172;2024-02-21T06:49:00;101836.09;;;10.07;88.65
79791;BME280;69278;52.220;5.172;2024-02-21T06:51:27;101833.47;;;10.07;88.76
79791;BME280;69278;52.220;5.172;2024-02-21T06:53:54;101794.53;;;9.86;88.87
79791;BME280;69278;52.220;5.172;2024-02-21T06:56:24;101773.75;;;9.71;88.67
79791;BME280;69278;52.220;5.172;2024-02-21T06:58:55;101794.34;;;9.89;88.94
79791;BME280;69278;52.220;5.172;2024-02-21T07:01:23;101823.88;;;10.06;89.15
79791;BME280;69278;52.220;5.172;2024-02-21T07:03:50;101806.75;;;10.36;89.89
79791;BME280;69278;52.220;5.172;2024-02-21T07:06:16;101770.94;;;10.57;90.74
79791;BME280;69278;52.220;5.172;2024-02-21T07:08:43;101788.94;;;10.98;90.73
79791;BME280;69278;52.220;5.172;2024-02-21T07:11:10;101787.19;;;11.32;90.64
79791;BME280;69278;52.220;5.172;2024-02-21T07:13:37;101803.28;;;11.51;87.67
79791;BME280;69278;52.220;5.172;2024-02-21T07:16:04;101789.38;;;11.49;86.49
79791;BME280;69278;52.220;5.172;2024-02-21T07:18:31;101785.06;;;11.59;86.41
79791;BME280;69278;52.220;5.172;2024-02-21T07:20:57;101781.72;;;11.68;85.60
79791;BME280;69278;52.220;5.172;2024-02-21T07:23:24;101787.03;;;11.79;85.36
79791;BME280;69278;52.220;5.172;2024-02-21T07:25:51;101771.66;;;11.73;84.63
79791;BME280;69278;52.220;5.172;2024-02-21T07:28:18;101770.72;;;11.74;83.95
79791;BME280;69278;52.220;5.172;2024-02-21T07:30:44;101786.88;;;11.92;83.61
79791;BME280;69278;52.220;5.172;2024-02-21T07:33:11;101766.84;;;11.78;82.27
79791;BME280;69278;52.220;5.172;2024-02-21T07:35:37;101738.66;;;11.68;81.85
79791;BME280;69278;52.220;5.172;2024-02-21T07:38:04;101766.25;;;11.86;82.12
79791;BME280;69278;52.220;5.172;2024-02-21T07:40:31;101735.31;;;11.77;82.50
79791;BME280;69278;52.220;5.172;2024-02-21T07:42:58;101747.88;;;11.95;82.40
79791;BME280;69278;52.220;5.172;2024-02-21T07:45:25;101723.03;;;11.87;81.07
79791;BME280;69278;52.220;5.172;2024-02-21T07:47:51;101738.66;;;11.90;81.46
79791;BME280;69278;52.220;5.172;2024-02-21T07:50:18;101719.22;;;11.80;81.04
79791;BME280;69278;52.220;5.172;2024-02-21T07:52:44;101714.94;;;11.79;81.71
79791;BME280;69278;52.220;5.172;2024-02-21T07:55:11;101719.59;;;11.86;81.72
79791;BME280;69278;52.220;5.172;2024-02-21T07:57:38;101662.63;;;11.62;81.96
79791;BME280;69278;52.220;5.172;2024-02-21T08:00:05;101728.50;;;12.17;82.21
79791;BME280;69278;52.220;5.172;2024-02-21T08:02:32;101723.22;;;12.17;82.30
79791;BME280;69278;52.220;5.172;2024-02-21T08:04:58;101728.44;;;12.28;81.22
79791;BME280;69278;52.220;5.172;2024-02-21T08:07:25;101675.00;;;12.04;81.02
79791;BME280;69278;52.220;5.172;2024-02-21T08:09:55;101654.88;;;11.92;79.95
79791;BME280;69278;52.220;5.172;2024-02-21T08:12:22;101732.84;;;12.07;80.08
79791;BME280;69278;52.220;5.172;2024-02-21T08:14:49;101718.03;;;11.73;80.09
79791;BME280;69278;52.220;5.172;2024-02-21T08:17:16;101721.41;;;11.53;80.64
79791;BME280;69278;52.220;5.172;2024-02-21T08:19:42;101713.94;;;11.24;80.96
79791;BME280;69278;52.220;5.172;2024-02-21T08:22:09;101688.78;;;10.98;81.38
79791;BME280;69278;52.220;5.172;2024-02-21T08:24:35;101625.94;;;10.48;82.00
79791;BME280;69278;52.220;5.172;2024-02-21T08:27:02;101675.44;;;10.66;82.47
79791;BME280;69278;52.220;5.172;2024-02-21T08:29:29;101678.28;;;10.63;82.68
79791;BME280;69278;52.220;5.172;2024-02-21T08:31:55;101706.69;;;10.71;82.87
79791;BME280;69278;52.220;5.172;2024-02-21T08:34:22;101643.63;;;10.35;83.20
79791;BME280;69278;52.220;5.172;2024-02-21T08:36:49;101698.53;;;10.63;83.55
79791;BME280;69278;52.220;5.172;2024-02-21T08:39:16;101692.16;;;10.54;83.75
79791;BME280;69278;52.220;5.172;2024-02-21T08:41:45;101625.03;;;10.25;83.80
79791;BME280;69278;52.220;5.172;2024-02-21T08:44:23;101677.91;;;10.57;84.18
79791;BME280;69278;52.220;5.172;2024-02-21T08:46:54;101671.00;;;10.56;84.49
79791;BME280;69278;52.220;5.172;2024-02-21T08:49:21;101676.97;;;10.58;84.48
79791;BME280;69278;52.220;5.172;2024-02-21T08:51:48;101679.84;;;10.55;85.14
79791;BME280;69278;52.220;5.172;2024-02-21T08:54:14;101675.06;;;10.60;84.78
79791;BME280;69278;52.220;5.172;2024-02-21T08:56:41;101666.94;;;10.63;84.85
79791;BME280;69278;52.220;5.172;2024-02-21T08:59:07;101663.09;;;10.56;84.71
79791;BME280;69278;52.220;5.172;2024-02-21T09:01:34;101645.09;;;10.50;85.01
79791;BME280;69278;52.220;5.172;2024-02-21T09:04:02;101636.34;;;10.49;85.11
79791;BME280;69278;52.220;5.172;2024-02-21T09:06:29;101650.03;;;10.54;85.08
79791;BME280;69278;52.220;5.172;2024-02-21T09:08:57;101583.06;;;10.24;84.66
79791;BME280;69278;52.220;5.172;2024-02-21T09:11:24;101641.41;;;10.63;84.77
79791;BME280;69278;52.220;5.172;2024-02-21T09:13:51;101624.69;;;10.87;87.24
79791;BME280;69278;52.220;5.172;2024-02-21T09:16:18;101625.44;;;11.65;88.23
79791;BME280;69278;52.220;5.172;2024-02-21T09:18:44;101650.31;;;12.26;87.29
79791;BME280;69278;52.220;5.172;2024-02-21T09:21:11;101624.22;;;12.53;84.37
79791;BME280;69278;52.220;5.172;2024-02-21T09:23:37;101604.84;;;12.63;82.08
79791;BME280;69278;52.220;5.172;2024-02-21T09:26:04;101578.47;;;12.73;82.68
79791;BME280;69278;52.220;5.172;2024-02-21T09:28:31;101592.25;;;13.07;80.45
79791;BME280;69278;52.220;5.172;2024-02-21T09:30:57;101606.25;;;13.38;80.62
79791;BME280;69278;52.220;5.172;2024-02-21T09:33:24;101593.03;;;13.38;77.46
79791;BME280;69278;52.220;5.172;2024-02-21T09:35:58;101600.56;;;13.42;76.74
79791;BME280;69278;52.220;5.172;2024-02-21T09:38:25;101548.03;;;13.18;75.59
79791;BME280;69278;52.220;5.172;2024-02-21T09:40:59;101535.38;;;13.22;76.98
79791;BME280;69278;52.220;5.172;2024-02-21T09:43:26;101587.66;;;13.68;75.39
79791;BME280;69278;52.220;5.172;2024-02-21T09:45:55;101565.91;;;13.64;76.23
79791;BME280;69278;52.220;5.172;2024-02-21T09:48:37;101489.59;;;13.31;75.05
79791;BME280;69278;52.220;5.172;2024-02-21T09:51:09;101496.81;;;13.29;73.28
79791;BME280;69278;52.220;5.172;2024-02-21T09:53:37;101517.16;;;13.38;74.45
79791;BME280;69278;52.220;5.172;2024-02-21T09:56:07;101501.28;;;13.38;73.73
79791;BME280;69278;52.220;5.172;2024-02-21T09:58:37;101469.69;;;13.37;73.41
79791;BME280;69278;52.220;5.172;2024-02-21T10:01:04;101495.03;;;13.49;73.86
79791;BME280;69278;52.220;5.172;2024-02-21T10:03:50;101508.09;;;13.60;73.58
79791;BME280;69278;52.220;5.172;2024-02-21T10:06:17;101511.59;;;13.60;72.28
79791;BME280;69278;52.220;5.172;2024-02-21T10:08:51;101502.81;;;13.41;72.80
79791;BME280;69278;52.220;5.172;2024-02-21T10:11:25;101492.66;;;13.55;73.49
79791;BME280;69278;52.220;5.172;2024-02-21T10:14:03;101494.72;;;13.61;73.75
79791;BME280;69278;52.220;5.172;2024-02-21T10:16:30;101503.81;;;13.78;73.13
79791;BME280;69278;52.220;5.172;2024-02-21T10:18:57;101450.31;;;13.55;73.08
79791;BME280;69278;52.220;5.172;2024-02-21T10:21:23;101385.72;;;13.39;72.78
79791;BME280;69278;52.220;5.172;2024-02-21T10:23:51;101477.53;;;14.13;72.04
79791;BME280;69278;52.220;5.172;2024-02-21T10:26:19;101468.72;;;14.13;71.61
79791;BME280;69278;52.220;5.172;2024-02-21T10:28:47;101471.94;;;14.16;71.96
79791;BME280;69278;52.220;5.172;2024-02-21T10:31:25;101414.03;;;13.84;72.15
79791;BME280;69278;52.220;5.172;2024-02-21T10:33:56;101442.25;;;14.13;72.20
79791;BME280;69278;52.220;5.172;2024-02-21T10:36:24;101449.19;;;14.23;71.41
79791;BME280;69278;52.220;5.172;2024-02-21T10:38:52;101441.78;;;14.27;70.88
79791;BME280;69278;52.220;5.172;2024-02-21T10:41:20;101445.69;;;14.32;70.29
79791;BME280;69278;52.220;5.172;2024-02-21T10:43:50;101388.06;;;14.07;70.92
79791;BME280;69278;52.220;5.172;2024-02-21T10:46:21;101421.72;;;14.34;71.14
79791;BME280;69278;52.220;5.172;2024-02-21T10:48:59;101368.69;;;14.07;71.33
79791;BME280;69278;52.220;5.172;2024-02-21T10:51:32;101363.47;;;14.15;70.31
79791;BME280;69278;52.220;5.172;2024-02-21T10:54:34;101391.81;;;14.41;71.33
79791;BME280;69278;52.220;5.172;2024-02-21T10:57:06;101330.72;;;14.16;69.30
79791;BME280;69278;52.220;5.172;2024-02-21T10:59:33;101319.72;;;14.11;69.64
79791;BME280;69278;52.220;5.172;2024-02-21T11:02:01;101323.91;;;14.13;69.07
79791;BME280;69278;52.220;5.172;2024-02-21T11:04:30;101365.94;;;13.89;69.28
79791;BME280;69278;52.220;5.172;2024-02-21T11:06:58;101413.09;;;14.13;70.50
79791;BME280;69278;52.220;5.172;2024-02-21T11:09:30;101409.38;;;14.06;70.76
79791;BME280;69278;52.220;5.172;2024-02-21T11:12:03;101430.28;;;14.09;69.37
79791;BME280;69278;52.220;5.172;2024-02-21T11:14:31;101357.69;;;13.55;69.51
79791;BME280;69278;52.220;5.172;2024-02-21T11:17:19;101418.66;;;13.82;71.40
79791;BME280;69278;52.220;5.172;2024-02-21T11:19:46;101365.47;;;13.57;70.47
79791;BME280;69278;52.220;5.172;2024-02-21T11:22:18;101410.72;;;13.82;70.96
79791;BME280;69278;52.220;5.172;2024-02-21T11:24:45;101383.59;;;13.71;70.97
79791;BME280;69278;52.220;5.172;2024-02-21T11:27:14;101379.00;;;13.63;70.69
79791;BME280;69278;52.220;5.172;2024-02-21T11:29:44;101397.06;;;13.77;72.17
79791;BME280;69278;52.220;5.172;2024-02-21T11:32:14;101388.19;;;13.59;69.03
79791;BME280;69278;52.220;5.172;2024-02-21T11:35:01;101335.88;;;12.86;69.95
79791;BME280;69278;52.220;5.172;2024-02-21T11:37:32;101283.81;;;12.29;71.08
79791;BME280;69278;52.220;5.172;2024-02-21T11:40:05;101240.38;;;11.84;72.29
79791;BME280;69278;52.220;5.172;2024-02-21T11:42:38;101314.38;;;12.22;72.74
79791;BME280;69278;52.220;5.172;2024-02-21T11:45:05;101301.94;;;11.94;73.11
79791;BME280;69278;52.220;5.172;2024-02-21T11:47:32;101330.44;;;12.00;73.43
79791;BME280;69278;52.220;5.172;2024-02-21T11:49:59;101284.69;;;11.60;73.73
79791;BME280;69278;52.220;5.172;2024-02-21T11:52:26;101303.41;;;11.87;74.25
79791;BME280;69278;52.220;5.172;2024-02-21T11:54:54;101305.09;;;11.88;74.49
79791;BME280;69278;52.220;5.172;2024-02-21T11:57:24;101191.41;;;11.30;74.47
79791;BME280;69278;52.220;5.172;2024-02-21T11:59:53;101264.56;;;11.89;74.61
79791;BME280;69278;52.220;5.172;2024-02-21T12:02:26;101254.00;;;11.89;74.74
79791;BME280;69278;52.220;5.172;2024-02-21T12:04:53;101249.84;;;11.96;74.74
79791;BME280;69278;52.220;5.172;2024-02-21T12:07:21;101226.22;;;11.94;74.66
79791;BME280;69278;52.220;5.172;2024-02-21T12:09:51;101200.66;;;11.85;74.39
79791;BME280;69278;52.220;5.172;2024-02-21T12:12:20;101214.56;;;11.97;74.68
79791;BME280;69278;52.220;5.172;2024-02-21T12:14:55;101216.09;;;12.09;74.63
79791;BME280;69278;52.220;5.172;2024-02-21T12:17:22;101189.25;;;11.94;74.70
79791;BME280;69278;52.220;5.172;2024-02-21T12:19:50;101202.19;;;11.97;74.74
79791;BME280;69278;52.220;5.172;2024-02-21T12:22:20;101199.72;;;12.06;75.35
79791;BME280;69278;52.220;5.172;2024-02-21T12:24:47;101175.53;;;11.91;75.22
79791;BME280;69278;52.220;5.172;2024-02-21T12:27:14;101211.66;;;12.10;75.36
79791;BME280;69278;52.220;5.172;2024-02-21T12:29:41;101190.81;;;12.07;75.91
79791;BME280;69278;52.220;5.172;2024-02-21T12:32:08;101126.69;;;11.66;75.80
79791;BME280;69278;52.220;5.172;2024-02-21T12:34:34;101182.34;;;12.03;76.05
79791;BME280;69278;52.220;5.172;2024-02-21T12:37:18;101172.06;;;12.00;76.03
79791;BME280;69278;52.220;5.172;2024-02-21T12:39:46;101147.88;;;11.95;76.21
79791;BME280;69278;52.220;5.172;2024-02-21T12:42:13;101128.97;;;11.90;75.99
79791;BME280;69278;52.220;5.172;2024-02-21T12:44:40;101140.22;;;11.92;75.94
79791;BME280;69278;52.220;5.172;2024-02-21T12:47:06;101044.06;;;11.47;75.94
79791;BME280;69278;52.220;5.172;2024-02-21T12:49:34;101114.41;;;11.95;75.83
79791;BME280;69278;52.220;5.172;2024-02-21T12:52:01;101111.75;;;12.05;75.51
79791;BME280;69278;52.220;5.172;2024-02-21T12:54:30;101058.97;;;11.76;75.56
79791;BME280;69278;52.220;5.172;2024-02-21T12:56:57;101102.59;;;11.99;75.42